sensor_id;sensor_type;location;lat;lon;timestamp;P1;durP1;ratioP1;P2;durP2;ratioP2
6344;SDS011;3205;42.666;23.264;2022-12-24T00:01:14;115.83;;;48.50;;
6344;SDS011;3205;42.666;23.264;2022-12-24T00:03:40;123.77;;;48.77;;
6344;SDS011;3205;42.666;23.264;2022-12-24T00:06:07;120.17;;;48.37;;
6344;SDS011;3205;42.666;23.264;2022-12-24T00:08:38;96.43;;;41.33;;
6344;SDS011;3205;42.666;23.264;2022-12-24T00:11:05;109.03;;;46.40;;
6344;SDS011;3205;42.666;23.264;2022-12-24T00:13:32;115.10;;;46.97;;
6344;SDS011;3205;42.666;23.264;2022-12-24T00:15:59;111.97;;;46.90;;
6344;SDS011;3205;42.666;23.264;2022-12-24T00:18:26;126.17;;;48.60;;
6344;SDS011;3205;42.666;23.264;2022-12-24T00:20:52;124.00;;;48.97;;
6344;SDS011;3205;42.666;23.264;2022-12-24T00:23:19;119.57;;;47.80;;
6344;SDS011;3205;42.666;23.264;2022-12-24T00:25:45;116.07;;;47.17;;
6344;SDS011;3205;42.666;23.264;2022-12-24T00:28:12;110.13;;;42.83;;
6344;SDS011;3205;42.666;23.264;2022-12-24T00:30:39;133.00;;;49.47;;
6344;SDS011;3205;42.666;23.264;2022-12-24T00:33:07;133.37;;;51.00;;
6344;SDS011;3205;42.666;23.264;2022-12-24T00:35:34;131.17;;;50.70;;
6344;SDS011;3205;42.666;23.264;2022-12-24T00:38:01;117.13;;;47.47;;
6344;SDS011;3205;42.666;23.264;2022-12-24T00:40:28;119.67;;;47.30;;
6344;SDS011;3205;42.666;23.264;2022-12-24T00:42:55;127.57;;;45.93;;
6344;SDS011;3205;42.666;23.264;2022-12-24T00:45:21;115.53;;;43.53;;
6344;SDS011;3205;42.666;23.264;2022-12-24T00:47:48;107.07;;;43.97;;
6344;SDS011;3205;42.666;23.264;2022-12-24T00:50:15;126.87;;;47.53;;
6344;SDS011;3205;42.666;23.264;2022-12-24T00:52:41;116.83;;;44.97;;
6344;SDS011;3205;42.666;23.264;2022-12-24T00:55:08;112.77;;;45.10;;
6344;SDS011;3205;42.666;23.264;2022-12-24T00:57:34;112.47;;;45.13;;
6344;SDS011;3205;42.666;23.264;2022-12-24T01:00:00;103.50;;;43.87;;
6344;SDS011;3205;42.666;23.264;2022-12-24T01:02:27;111.10;;;43.10;;
6344;SDS011;3205;42.666;23.264;2022-12-24T01:04:53;97.50;;;40.30;;
6344;SDS011;3205;42.666;23.264;2022-12-24T01:07:38;89.00;;;37.70;;
6344;SDS011;3205;42.666;23.264;2022-12-24T01:10:09;97.60;;;39.23;;
6344;SDS011;3205;42.666;23.264;2022-12-24T01:12:36;102.07;;;40.50;;
6344;SDS011;3205;42.666;23.264;2022-12-24T01:15:03;101.23;;;41.23;;
6344;SDS011;3205;42.666;23.264;2022-12-24T01:17:30;105.53;;;42.63;;
6344;SDS011;3205;42.666;23.264;2022-12-24T01:19:56;98.40;;;41.93;;
6344;SDS011;3205;42.666;23.264;2022-12-24T01:22:23;114.07;;;42.60;;
6344;SDS011;3205;42.666;23.264;2022-12-24T01:24:50;106.50;;;39.37;;
6344;SDS011;3205;42.666;23.264;2022-12-24T01:27:16;96.17;;;38.43;;
6344;SDS011;3205;42.666;23.264;2022-12-24T01:29:42;85.73;;;34.13;;
6344;SDS011;3205;42.666;23.264;2022-12-24T01:32:08;88.23;;;35.07;;
6344;SDS011;3205;42.666;23.264;2022-12-24T01:34:35;84.60;;;36.30;;
6344;SDS011;3205;42.666;23.264;2022-12-24T01:37:01;89.00;;;36.17;;
6344;SDS011;3205;42.666;23.264;2022-12-24T01:39:27;101.70;;;37.70;;
6344;SDS011;3205;42.666;23.264;2022-12-24T01:41:54;98.13;;;40.10;;
6344;SDS011;3205;42.666;23.264;2022-12-24T01:44:39;81.87;;;33.90;;
6344;SDS011;3205;42.666;23.264;2022-12-24T01:47:07;76.67;;;31.43;;
6344;SDS011;3205;42.666;23.264;2022-12-24T01:49:36;54.47;;;26.83;;
6344;SDS011;3205;42.666;23.264;2022-12-24T01:52:06;58.10;;;26.13;;
6344;SDS011;3205;42.666;23.264;2022-12-24T01:54:36;70.33;;;30.13;;
6344;SDS011;3205;42.666;23.264;2022-12-24T01:57:07;71.97;;;31.80;;
6344;SDS011;3205;42.666;23.264;2022-12-24T01:59:35;70.30;;;31.57;;
6344;SDS011;3205;42.666;23.264;2022-12-24T02:02:03;100.03;;;42.20;;
6344;SDS011;3205;42.666;23.264;2022-12-24T02:04:32;151.63;;;57.47;;
6344;SDS011;3205;42.666;23.264;2022-12-24T02:07:02;127.33;;;50.23;;
6344;SDS011;3205;42.666;23.264;2022-12-24T02:09:28;136.97;;;55.30;;
6344;SDS011;3205;42.666;23.264;2022-12-24T02:11:55;106.07;;;41.27;;
6344;SDS011;3205;42.666;23.264;2022-12-24T02:14:23;108.27;;;39.37;;
6344;SDS011;3205;42.666;23.264;2022-12-24T02:16:52;83.17;;;32.10;;
6344;SDS011;3205;42.666;23.264;2022-12-24T02:19:30;69.80;;;31.70;;
6344;SDS011;3205;42.666;23.264;2022-12-24T02:22:19;53.57;;;27.00;;
6344;SDS011;3205;42.666;23.264;2022-12-24T02:25:04;53.50;;;26.90;;
6344;SDS011;3205;42.666;23.264;2022-12-24T02:27:50;49.33;;;25.17;;
6344;SDS011;3205;42.666;23.264;2022-12-24T02:30:22;55.03;;;25.97;;
6344;SDS011;3205;42.666;23.264;2022-12-24T02:32:57;50.20;;;24.33;;
6344;SDS011;3205;42.666;23.264;2022-12-24T02:35:39;49.33;;;23.73;;
6344;SDS011;3205;42.666;23.264;2022-12-24T02:38:12;43.83;;;21.23;;
6344;SDS011;3205;42.666;23.264;2022-12-24T02:40:45;49.50;;;23.40;;
6344;SDS011;3205;42.666;23.264;2022-12-24T02:43:16;55.33;;;25.67;;
6344;SDS011;3205;42.666;23.264;2022-12-24T02:45:47;52.57;;;24.37;;
6344;SDS011;3205;42.666;23.264;2022-12-24T02:51:03;46.40;;;23.60;;
6344;SDS011;3205;42.666;23.264;2022-12-24T02:53:32;49.40;;;24.83;;
6344;SDS011;3205;42.666;23.264;2022-12-24T02:56:02;49.50;;;24.33;;
6344;SDS011;3205;42.666;23.264;2022-12-24T02:58:45;58.93;;;26.70;;
6344;SDS011;3205;42.666;23.264;2022-12-24T03:01:24;50.70;;;24.00;;
6344;SDS011;3205;42.666;23.264;2022-12-24T03:04:07;52.33;;;23.70;;
6344;SDS011;3205;42.666;23.264;2022-12-24T03:06:42;60.47;;;25.97;;
6344;SDS011;3205;42.666;23.264;2022-12-24T03:09:13;55.70;;;26.47;;
6344;SDS011;3205;42.666;23.264;2022-12-24T03:11:48;61.23;;;28.30;;
6344;SDS011;3205;42.666;23.264;2022-12-24T03:14:23;52.40;;;25.53;;
6344;SDS011;3205;42.666;23.264;2022-12-24T03:16:51;64.73;;;28.00;;
6344;SDS011;3205;42.666;23.264;2022-12-24T03:19:18;54.07;;;27.20;;
6344;SDS011;3205;42.666;23.264;2022-12-24T03:21:46;60.77;;;26.73;;
6344;SDS011;3205;42.666;23.264;2022-12-24T03:24:14;54.60;;;24.43;;
6344;SDS011;3205;42.666;23.264;2022-12-24T03:26:40;46.47;;;24.03;;
6344;SDS011;3205;42.666;23.264;2022-12-24T03:29:09;50.67;;;24.83;;
6344;SDS011;3205;42.666;23.264;2022-12-24T03:31:42;45.80;;;22.57;;
6344;SDS011;3205;42.666;23.264;2022-12-24T03:34:10;48.73;;;24.47;;
6344;SDS011;3205;42.666;23.264;2022-12-24T03:36:37;46.07;;;22.80;;
6344;SDS011;3205;42.666;23.264;2022-12-24T03:39:04;57.30;;;23.93;;
6344;SDS011;3205;42.666;23.264;2022-12-24T03:41:31;45.40;;;22.17;;
6344;SDS011;3205;42.666;23.264;2022-12-24T03:43:57;50.27;;;23.77;;
6344;SDS011;3205;42.666;23.264;2022-12-24T03:46:23;56.13;;;24.70;;
6344;SDS011;3205;42.666;23.264;2022-12-24T03:48:50;47.00;;;23.53;;
6344;SDS011;3205;42.666;23.264;2022-12-24T03:51:17;59.50;;;23.53;;
6344;SDS011;3205;42.666;23.264;2022-12-24T03:53:45;46.37;;;22.63;;
6344;SDS011;3205;42.666;23.264;2022-12-24T03:56:11;49.87;;;23.50;;
6344;SDS011;3205;42.666;23.264;2022-12-24T03:58:38;52.07;;;22.87;;
6344;SDS011;3205;42.666;23.264;2022-12-24T04:01:04;54.73;;;25.03;;
6344;SDS011;3205;42.666;23.264;2022-12-24T04:03:30;46.57;;;23.37;;
6344;SDS011;3205;42.666;23.264;2022-12-24T04:06:00;46.07;;;22.47;;
6344;SDS011;3205;42.666;23.264;2022-12-24T04:08:28;49.63;;;23.27;;
6344;SDS011;3205;42.666;23.264;2022-12-24T04:10:54;47.57;;;22.43;;
6344;SDS011;3205;42.666;23.264;2022-12-24T04:13:21;44.50;;;21.03;;
6344;SDS011;3205;42.666;23.264;2022-12-24T04:15:55;47.60;;;23.97;;
6344;SDS011;3205;42.666;23.264;2022-12-24T04:18:21;46.83;;;23.83;;
6344;SDS011;3205;42.666;23.264;2022-12-24T04:20:48;50.27;;;24.33;;
6344;SDS011;3205;42.666;23.264;2022-12-24T04:23:14;51.40;;;23.33;;
6344;SDS011;3205;42.666;23.264;2022-12-24T04:25:41;52.43;;;25.97;;
6344;SDS011;3205;42.666;23.264;2022-12-24T04:28:07;59.07;;;25.57;;
6344;SDS011;3205;42.666;23.264;2022-12-24T04:30:34;54.00;;;26.47;;
6344;SDS011;3205;42.666;23.264;2022-12-24T04:33:00;53.07;;;25.37;;
6344;SDS011;3205;42.666;23.264;2022-12-24T04:35:26;58.83;;;26.03;;
6344;SDS011;3205;42.666;23.264;2022-12-24T04:37:53;58.00;;;23.70;;
6344;SDS011;3205;42.666;23.264;2022-12-24T04:40:19;44.63;;;24.37;;
6344;SDS011;3205;42.666;23.264;2022-12-24T04:42:46;52.97;;;23.10;;
6344;SDS011;3205;42.666;23.264;2022-12-24T04:45:14;54.37;;;24.37;;
6344;SDS011;3205;42.666;23.264;2022-12-24T04:47:40;48.93;;;22.93;;
6344;SDS011;3205;42.666;23.264;2022-12-24T04:50:07;49.10;;;23.63;;
6344;SDS011;3205;42.666;23.264;2022-12-24T04:52:34;52.67;;;24.87;;
6344;SDS011;3205;42.666;23.264;2022-12-24T04:55:01;48.13;;;23.40;;
6344;SDS011;3205;42.666;23.264;2022-12-24T04:57:27;49.83;;;24.77;;
6344;SDS011;3205;42.666;23.264;2022-12-24T04:59:57;54.00;;;25.30;;
6344;SDS011;3205;42.666;23.264;2022-12-24T05:02:23;50.47;;;22.57;;
6344;SDS011;3205;42.666;23.264;2022-12-24T05:04:50;46.50;;;22.37;;
6344;SDS011;3205;42.666;23.264;2022-12-24T05:07:16;45.97;;;23.27;;
6344;SDS011;3205;42.666;23.264;2022-12-24T05:09:42;45.97;;;22.97;;
6344;SDS011;3205;42.666;23.264;2022-12-24T05:12:09;50.10;;;24.00;;
6344;SDS011;3205;42.666;23.264;2022-12-24T05:14:35;50.80;;;25.73;;
6344;SDS011;3205;42.666;23.264;2022-12-24T05:17:02;55.67;;;25.93;;
6344;SDS011;3205;42.666;23.264;2022-12-24T05:19:29;51.20;;;24.97;;
6344;SDS011;3205;42.666;23.264;2022-12-24T05:21:55;57.37;;;28.30;;
6344;SDS011;3205;42.666;23.264;2022-12-24T05:24:39;54.10;;;25.17;;
6344;SDS011;3205;42.666;23.264;2022-12-24T05:27:24;63.67;;;28.23;;
6344;SDS011;3205;42.666;23.264;2022-12-24T05:29:50;63.93;;;28.70;;
6344;SDS011;3205;42.666;23.264;2022-12-24T05:32:17;58.70;;;29.33;;
6344;SDS011;3205;42.666;23.264;2022-12-24T05:34:43;67.33;;;28.07;;
6344;SDS011;3205;42.666;23.264;2022-12-24T05:37:10;58.97;;;27.80;;
6344;SDS011;3205;42.666;23.264;2022-12-24T05:39:36;65.93;;;29.20;;
6344;SDS011;3205;42.666;23.264;2022-12-24T05:42:02;63.50;;;27.90;;
6344;SDS011;3205;42.666;23.264;2022-12-24T05:44:29;56.13;;;27.67;;
6344;SDS011;3205;42.666;23.264;2022-12-24T05:46:55;54.97;;;25.83;;
6344;SDS011;3205;42.666;23.264;2022-12-24T05:49:22;53.63;;;25.50;;
6344;SDS011;3205;42.666;23.264;2022-12-24T05:51:48;53.60;;;27.20;;
6344;SDS011;3205;42.666;23.264;2022-12-24T05:54:15;53.13;;;25.83;;
6344;SDS011;3205;42.666;23.264;2022-12-24T05:56:41;57.43;;;28.30;;
6344;SDS011;3205;42.666;23.264;2022-12-24T05:59:07;63.17;;;28.73;;
6344;SDS011;3205;42.666;23.264;2022-12-24T06:01:34;56.60;;;26.93;;
6344;SDS011;3205;42.666;23.264;2022-12-24T06:04:00;47.07;;;24.77;;
6344;SDS011;3205;42.666;23.264;2022-12-24T06:06:27;50.90;;;26.47;;
6344;SDS011;3205;42.666;23.264;2022-12-24T06:08:54;57.07;;;27.50;;
6344;SDS011;3205;42.666;23.264;2022-12-24T06:11:22;59.70;;;28.03;;
6344;SDS011;3205;42.666;23.264;2022-12-24T06:13:51;59.47;;;29.40;;
6344;SDS011;3205;42.666;23.264;2022-12-24T06:16:18;51.37;;;27.07;;
6344;SDS011;3205;42.666;23.264;2022-12-24T06:18:45;62.13;;;28.07;;
6344;SDS011;3205;42.666;23.264;2022-12-24T06:21:12;62.43;;;28.73;;
6344;SDS011;3205;42.666;23.264;2022-12-24T06:23:40;59.33;;;29.33;;
6344;SDS011;3205;42.666;23.264;2022-12-24T06:26:10;59.77;;;28.43;;
6344;SDS011;3205;42.666;23.264;2022-12-24T06:28:38;59.83;;;26.43;;
6344;SDS011;3205;42.666;23.264;2022-12-24T06:31:05;58.17;;;27.90;;
6344;SDS011;3205;42.666;23.264;2022-12-24T06:33:35;71.50;;;32.07;;
6344;SDS011;3205;42.666;23.264;2022-12-24T06:36:01;59.97;;;32.53;;
6344;SDS011;3205;42.666;23.264;2022-12-24T06:38:31;58.87;;;30.40;;
6344;SDS011;3205;42.666;23.264;2022-12-24T06:40:58;73.70;;;32.87;;
6344;SDS011;3205;42.666;23.264;2022-12-24T06:43:24;64.80;;;30.70;;
6344;SDS011;3205;42.666;23.264;2022-12-24T06:45:51;70.40;;;31.83;;
6344;SDS011;3205;42.666;23.264;2022-12-24T06:48:17;62.40;;;31.23;;
6344;SDS011;3205;42.666;23.264;2022-12-24T06:50:44;64.77;;;32.60;;
6344;SDS011;3205;42.666;23.264;2022-12-24T06:53:10;65.60;;;32.93;;
6344;SDS011;3205;42.666;23.264;2022-12-24T06:55:37;64.63;;;31.60;;
6344;SDS011;3205;42.666;23.264;2022-12-24T06:58:04;75.17;;;33.43;;
6344;SDS011;3205;42.666;23.264;2022-12-24T07:00:30;72.67;;;35.50;;
6344;SDS011;3205;42.666;23.264;2022-12-24T07:02:57;64.90;;;33.93;;
6344;SDS011;3205;42.666;23.264;2022-12-24T07:05:23;63.37;;;32.20;;
6344;SDS011;3205;42.666;23.264;2022-12-24T07:07:49;57.37;;;30.33;;
6344;SDS011;3205;42.666;23.264;2022-12-24T07:10:16;63.37;;;32.80;;
6344;SDS011;3205;42.666;23.264;2022-12-24T07:12:43;65.37;;;35.50;;
6344;SDS011;3205;42.666;23.264;2022-12-24T07:15:10;53.73;;;30.90;;
6344;SDS011;3205;42.666;23.264;2022-12-24T07:17:37;46.00;;;25.53;;
6344;SDS011;3205;42.666;23.264;2022-12-24T07:20:04;42.73;;;24.20;;
6344;SDS011;3205;42.666;23.264;2022-12-24T07:22:32;56.80;;;29.47;;
6344;SDS011;3205;42.666;23.264;2022-12-24T07:24:58;46.70;;;25.83;;
6344;SDS011;3205;42.666;23.264;2022-12-24T07:27:24;40.80;;;23.33;;
6344;SDS011;3205;42.666;23.264;2022-12-24T07:29:50;39.70;;;21.80;;
6344;SDS011;3205;42.666;23.264;2022-12-24T07:32:17;38.30;;;23.07;;
6344;SDS011;3205;42.666;23.264;2022-12-24T07:34:44;41.33;;;23.90;;
6344;SDS011;3205;42.666;23.264;2022-12-24T07:37:10;41.90;;;23.40;;
6344;SDS011;3205;42.666;23.264;2022-12-24T07:39:37;50.17;;;25.40;;
6344;SDS011;3205;42.666;23.264;2022-12-24T07:42:03;45.50;;;24.97;;
6344;SDS011;3205;42.666;23.264;2022-12-24T07:44:32;48.90;;;26.37;;
6344;SDS011;3205;42.666;23.264;2022-12-24T07:46:58;48.17;;;26.80;;
6344;SDS011;3205;42.666;23.264;2022-12-24T07:49:25;55.17;;;26.27;;
6344;SDS011;3205;42.666;23.264;2022-12-24T07:51:51;48.40;;;25.53;;
6344;SDS011;3205;42.666;23.264;2022-12-24T07:54:18;44.53;;;25.87;;
6344;SDS011;3205;42.666;23.264;2022-12-24T07:56:44;46.90;;;28.27;;
6344;SDS011;3205;42.666;23.264;2022-12-24T07:59:11;56.27;;;31.93;;
6344;SDS011;3205;42.666;23.264;2022-12-24T08:01:38;51.13;;;28.73;;
6344;SDS011;3205;42.666;23.264;2022-12-24T08:04:04;52.17;;;27.73;;
6344;SDS011;3205;42.666;23.264;2022-12-24T08:06:31;46.93;;;27.17;;
6344;SDS011;3205;42.666;23.264;2022-12-24T08:08:58;59.80;;;30.37;;
6344;SDS011;3205;42.666;23.264;2022-12-24T08:11:24;56.50;;;30.80;;
6344;SDS011;3205;42.666;23.264;2022-12-24T08:13:50;62.63;;;34.60;;
6344;SDS011;3205;42.666;23.264;2022-12-24T08:16:16;69.70;;;36.43;;
6344;SDS011;3205;42.666;23.264;2022-12-24T08:18:43;62.20;;;32.43;;
6344;SDS011;3205;42.666;23.264;2022-12-24T08:21:09;56.23;;;31.23;;
6344;SDS011;3205;42.666;23.264;2022-12-24T08:23:36;51.87;;;25.27;;
6344;SDS011;3205;42.666;23.264;2022-12-24T08:26:05;45.40;;;24.20;;
6344;SDS011;3205;42.666;23.264;2022-12-24T08:28:32;52.80;;;26.63;;
6344;SDS011;3205;42.666;23.264;2022-12-24T08:30:58;52.27;;;27.67;;
6344;SDS011;3205;42.666;23.264;2022-12-24T08:33:25;60.20;;;29.20;;
6344;SDS011;3205;42.666;23.264;2022-12-24T08:35:52;47.43;;;26.23;;
6344;SDS011;3205;42.666;23.264;2022-12-24T08:38:19;50.27;;;26.97;;
6344;SDS011;3205;42.666;23.264;2022-12-24T08:40:47;52.13;;;28.43;;
6344;SDS011;3205;42.666;23.264;2022-12-24T08:43:14;61.20;;;30.60;;
6344;SDS011;3205;42.666;23.264;2022-12-24T08:45:40;64.97;;;33.57;;
6344;SDS011;3205;42.666;23.264;2022-12-24T08:48:07;65.30;;;32.63;;
6344;SDS011;3205;42.666;23.264;2022-12-24T08:50:37;64.17;;;34.40;;
6344;SDS011;3205;42.666;23.264;2022-12-24T08:53:04;63.70;;;32.00;;
6344;SDS011;3205;42.666;23.264;2022-12-24T08:55:31;70.53;;;33.13;;
6344;SDS011;3205;42.666;23.264;2022-12-24T08:57:57;70.67;;;35.27;;
6344;SDS011;3205;42.666;23.264;2022-12-24T09:00:24;75.00;;;36.77;;
6344;SDS011;3205;42.666;23.264;2022-12-24T09:02:50;75.73;;;33.93;;
6344;SDS011;3205;42.666;23.264;2022-12-24T09:05:17;67.67;;;34.53;;
6344;SDS011;3205;42.666;23.264;2022-12-24T09:07:43;68.67;;;33.60;;
6344;SDS011;3205;42.666;23.264;2022-12-24T09:10:10;63.10;;;33.77;;
6344;SDS011;3205;42.666;23.264;2022-12-24T09:12:36;58.67;;;30.53;;
6344;SDS011;3205;42.666;23.264;2022-12-24T09:15:04;60.23;;;31.17;;
6344;SDS011;3205;42.666;23.264;2022-12-24T09:17:32;63.50;;;31.70;;
6344;SDS011;3205;42.666;23.264;2022-12-24T09:19:59;53.10;;;30.67;;
6344;SDS011;3205;42.666;23.264;2022-12-24T09:22:25;54.80;;;29.97;;
6344;SDS011;3205;42.666;23.264;2022-12-24T09:24:52;55.03;;;30.10;;
6344;SDS011;3205;42.666;23.264;2022-12-24T09:27:18;54.27;;;29.97;;
6344;SDS011;3205;42.666;23.264;2022-12-24T09:29:44;58.83;;;30.83;;
6344;SDS011;3205;42.666;23.264;2022-12-24T09:32:11;58.17;;;30.67;;
6344;SDS011;3205;42.666;23.264;2022-12-24T09:34:37;52.47;;;29.67;;
6344;SDS011;3205;42.666;23.264;2022-12-24T09:37:04;65.30;;;30.37;;
6344;SDS011;3205;42.666;23.264;2022-12-24T09:39:30;46.27;;;28.70;;
6344;SDS011;3205;42.666;23.264;2022-12-24T09:41:58;55.53;;;27.20;;
6344;SDS011;3205;42.666;23.264;2022-12-24T09:44:33;65.17;;;32.13;;
6344;SDS011;3205;42.666;23.264;2022-12-24T09:47:08;52.90;;;29.53;;
6344;SDS011;3205;42.666;23.264;2022-12-24T09:49:44;62.10;;;32.67;;
6344;SDS011;3205;42.666;23.264;2022-12-24T09:52:15;63.20;;;32.70;;
6344;SDS011;3205;42.666;23.264;2022-12-24T09:54:50;60.13;;;32.10;;
6344;SDS011;3205;42.666;23.264;2022-12-24T09:57:24;79.70;;;35.20;;
6344;SDS011;3205;42.666;23.264;2022-12-24T09:59:54;74.27;;;36.20;;
6344;SDS011;3205;42.666;23.264;2022-12-24T10:02:21;70.23;;;38.60;;
6344;SDS011;3205;42.666;23.264;2022-12-24T10:04:48;77.60;;;38.03;;
6344;SDS011;3205;42.666;23.264;2022-12-24T10:07:18;76.00;;;38.17;;
6344;SDS011;3205;42.666;23.264;2022-12-24T10:09:57;77.20;;;39.60;;
6344;SDS011;3205;42.666;23.264;2022-12-24T10:12:32;80.90;;;39.97;;
6344;SDS011;3205;42.666;23.264;2022-12-24T10:15:08;74.43;;;38.97;;
6344;SDS011;3205;42.666;23.264;2022-12-24T10:17:45;84.93;;;41.57;;
6344;SDS011;3205;42.666;23.264;2022-12-24T10:20:29;110.27;;;44.67;;
6344;SDS011;3205;42.666;23.264;2022-12-24T10:23:02;119.87;;;51.40;;
6344;SDS011;3205;42.666;23.264;2022-12-24T10:25:37;136.07;;;58.80;;
6344;SDS011;3205;42.666;23.264;2022-12-24T10:28:12;143.37;;;60.60;;
6344;SDS011;3205;42.666;23.264;2022-12-24T10:30:40;136.70;;;59.17;;
6344;SDS011;3205;42.666;23.264;2022-12-24T10:33:12;132.67;;;59.73;;
6344;SDS011;3205;42.666;23.264;2022-12-24T10:35:45;126.00;;;60.27;;
6344;SDS011;3205;42.666;23.264;2022-12-24T10:38:15;133.77;;;61.43;;
6344;SDS011;3205;42.666;23.264;2022-12-24T10:40:42;133.53;;;64.00;;
6344;SDS011;3205;42.666;23.264;2022-12-24T10:43:11;188.13;;;96.10;;
6344;SDS011;3205;42.666;23.264;2022-12-24T10:45:41;139.87;;;67.27;;
6344;SDS011;3205;42.666;23.264;2022-12-24T10:48:11;153.70;;;74.97;;
6344;SDS011;3205;42.666;23.264;2022-12-24T10:50:47;162.17;;;71.80;;
6344;SDS011;3205;42.666;23.264;2022-12-24T10:53:20;172.50;;;78.27;;
6344;SDS011;3205;42.666;23.264;2022-12-24T10:56:02;131.57;;;64.20;;
6344;SDS011;3205;42.666;23.264;2022-12-24T10:58:30;134.87;;;66.47;;
6344;SDS011;3205;42.666;23.264;2022-12-24T11:00:57;138.63;;;62.33;;
6344;SDS011;3205;42.666;23.264;2022-12-24T11:03:27;139.40;;;67.17;;
6344;SDS011;3205;42.666;23.264;2022-12-24T11:06:02;141.50;;;67.53;;
6344;SDS011;3205;42.666;23.264;2022-12-24T11:08:31;142.27;;;63.90;;
6344;SDS011;3205;42.666;23.264;2022-12-24T11:10:59;130.20;;;64.07;;
6344;SDS011;3205;42.666;23.264;2022-12-24T11:13:28;140.83;;;62.70;;
6344;SDS011;3205;42.666;23.264;2022-12-24T11:16:01;182.77;;;74.73;;
6344;SDS011;3205;42.666;23.264;2022-12-24T11:18:30;127.70;;;63.50;;
6344;SDS011;3205;42.666;23.264;2022-12-24T11:20:57;145.07;;;64.47;;
6344;SDS011;3205;42.666;23.264;2022-12-24T11:23:26;145.53;;;62.57;;
6344;SDS011;3205;42.666;23.264;2022-12-24T11:25:53;126.73;;;59.97;;
6344;SDS011;3205;42.666;23.264;2022-12-24T11:28:22;135.47;;;63.93;;
6344;SDS011;3205;42.666;23.264;2022-12-24T11:30:54;132.13;;;61.87;;
6344;SDS011;3205;42.666;23.264;2022-12-24T11:33:22;122.13;;;61.07;;
6344;SDS011;3205;42.666;23.264;2022-12-24T11:35:51;153.07;;;65.97;;
6344;SDS011;3205;42.666;23.264;2022-12-24T11:38:20;129.93;;;65.17;;
6344;SDS011;3205;42.666;23.264;2022-12-24T11:40:56;125.47;;;62.97;;
6344;SDS011;3205;42.666;23.264;2022-12-24T11:43:24;129.93;;;64.03;;
6344;SDS011;3205;42.666;23.264;2022-12-24T11:46:10;118.43;;;57.53;;
6344;SDS011;3205;42.666;23.264;2022-12-24T11:48:38;112.90;;;56.67;;
6344;SDS011;3205;42.666;23.264;2022-12-24T11:51:05;117.63;;;57.33;;
6344;SDS011;3205;42.666;23.264;2022-12-24T11:53:44;117.17;;;58.43;;
6344;SDS011;3205;42.666;23.264;2022-12-24T11:56:16;121.63;;;56.53;;
6344;SDS011;3205;42.666;23.264;2022-12-24T11:58:53;121.17;;;57.50;;
6344;SDS011;3205;42.666;23.264;2022-12-24T12:01:26;113.03;;;59.13;;
6344;SDS011;3205;42.666;23.264;2022-12-24T12:03:59;115.23;;;57.97;;
6344;SDS011;3205;42.666;23.264;2022-12-24T12:06:30;124.83;;;62.00;;
6344;SDS011;3205;42.666;23.264;2022-12-24T12:09:09;128.33;;;60.13;;
6344;SDS011;3205;42.666;23.264;2022-12-24T12:11:38;130.73;;;60.80;;
6344;SDS011;3205;42.666;23.264;2022-12-24T12:14:08;127.37;;;60.80;;
6344;SDS011;3205;42.666;23.264;2022-12-24T12:16:44;125.97;;;62.00;;
6344;SDS011;3205;42.666;23.264;2022-12-24T12:19:29;120.70;;;60.13;;
6344;SDS011;3205;42.666;23.264;2022-12-24T12:22:02;136.93;;;65.50;;
6344;SDS011;3205;42.666;23.264;2022-12-24T12:24:33;138.03;;;64.73;;
6344;SDS011;3205;42.666;23.264;2022-12-24T12:27:06;131.53;;;65.80;;
6344;SDS011;3205;42.666;23.264;2022-12-24T12:29:41;119.70;;;60.83;;
6344;SDS011;3205;42.666;23.264;2022-12-24T12:32:12;132.00;;;59.73;;
6344;SDS011;3205;42.666;23.264;2022-12-24T12:34:49;138.37;;;65.40;;
6344;SDS011;3205;42.666;23.264;2022-12-24T12:37:30;134.90;;;69.37;;
6344;SDS011;3205;42.666;23.264;2022-12-24T12:40:00;143.27;;;69.37;;
6344;SDS011;3205;42.666;23.264;2022-12-24T12:42:28;150.77;;;65.77;;
6344;SDS011;3205;42.666;23.264;2022-12-24T12:45:02;145.77;;;68.27;;
6344;SDS011;3205;42.666;23.264;2022-12-24T12:47:58;128.77;;;65.40;;
6344;SDS011;3205;42.666;23.264;2022-12-24T12:50:37;139.00;;;66.73;;
6344;SDS011;3205;42.666;23.264;2022-12-24T12:53:19;123.23;;;63.53;;
6344;SDS011;3205;42.666;23.264;2022-12-24T12:55:54;123.07;;;61.60;;
6344;SDS011;3205;42.666;23.264;2022-12-24T12:58:31;122.60;;;58.97;;
6344;SDS011;3205;42.666;23.264;2022-12-24T13:01:04;125.47;;;59.57;;
6344;SDS011;3205;42.666;23.264;2022-12-24T13:06:45;111.07;;;55.27;;
6344;SDS011;3205;42.666;23.264;2022-12-24T13:09:31;115.67;;;55.57;;
6344;SDS011;3205;42.666;23.264;2022-12-24T13:12:13;147.97;;;68.50;;
6344;SDS011;3205;42.666;23.264;2022-12-24T13:14:56;152.07;;;76.60;;
6344;SDS011;3205;42.666;23.264;2022-12-24T13:17:49;125.90;;;58.10;;
6344;SDS011;3205;42.666;23.264;2022-12-24T13:20:29;91.37;;;40.00;;
6344;SDS011;3205;42.666;23.264;2022-12-24T13:22:57;96.80;;;43.27;;
6344;SDS011;3205;42.666;23.264;2022-12-24T13:25:34;94.87;;;43.73;;
6344;SDS011;3205;42.666;23.264;2022-12-24T13:28:29;112.97;;;46.30;;
6344;SDS011;3205;42.666;23.264;2022-12-24T13:33:57;91.20;;;44.40;;
6344;SDS011;3205;42.666;23.264;2022-12-24T13:39:26;92.00;;;43.47;;
6344;SDS011;3205;42.666;23.264;2022-12-24T13:41:52;89.40;;;41.57;;
6344;SDS011;3205;42.666;23.264;2022-12-24T13:44:19;94.07;;;41.53;;
6344;SDS011;3205;42.666;23.264;2022-12-24T13:49:49;96.83;;;45.43;;
6344;SDS011;3205;42.666;23.264;2022-12-24T13:52:21;89.13;;;42.60;;
6344;SDS011;3205;42.666;23.264;2022-12-24T13:57:42;105.53;;;50.03;;
6344;SDS011;3205;42.666;23.264;2022-12-24T14:00:29;118.57;;;51.90;;
6344;SDS011;3205;42.666;23.264;2022-12-24T14:02:59;101.00;;;50.13;;
6344;SDS011;3205;42.666;23.264;2022-12-24T14:05:31;119.20;;;50.73;;
6344;SDS011;3205;42.666;23.264;2022-12-24T14:08:02;103.73;;;50.07;;
6344;SDS011;3205;42.666;23.264;2022-12-24T14:10:34;110.53;;;53.40;;
6344;SDS011;3205;42.666;23.264;2022-12-24T14:13:02;114.40;;;52.00;;
6344;SDS011;3205;42.666;23.264;2022-12-24T14:18:36;116.60;;;53.23;;
6344;SDS011;3205;42.666;23.264;2022-12-24T14:21:11;112.97;;;54.07;;
6344;SDS011;3205;42.666;23.264;2022-12-24T14:23:43;107.93;;;53.50;;
6344;SDS011;3205;42.666;23.264;2022-12-24T14:26:17;109.40;;;53.37;;
6344;SDS011;3205;42.666;23.264;2022-12-24T14:28:47;112.33;;;54.83;;
6344;SDS011;3205;42.666;23.264;2022-12-24T14:31:19;114.87;;;55.00;;
6344;SDS011;3205;42.666;23.264;2022-12-24T14:33:47;119.83;;;55.07;;
6344;SDS011;3205;42.666;23.264;2022-12-24T14:36:13;107.57;;;49.13;;
6344;SDS011;3205;42.666;23.264;2022-12-24T14:38:47;50.10;;;27.90;;
6344;SDS011;3205;42.666;23.264;2022-12-24T14:44:10;41.47;;;20.50;;
6344;SDS011;3205;42.666;23.264;2022-12-24T14:46:46;38.90;;;21.90;;
6344;SDS011;3205;42.666;23.264;2022-12-24T14:49:22;39.97;;;21.57;;
6344;SDS011;3205;42.666;23.264;2022-12-24T14:52:00;33.77;;;18.20;;
6344;SDS011;3205;42.666;23.264;2022-12-24T14:54:34;35.17;;;18.40;;
6344;SDS011;3205;42.666;23.264;2022-12-24T14:57:12;25.57;;;15.63;;
6344;SDS011;3205;42.666;23.264;2022-12-24T14:59:45;24.60;;;14.47;;
6344;SDS011;3205;42.666;23.264;2022-12-24T15:02:23;29.33;;;15.27;;
6344;SDS011;3205;42.666;23.264;2022-12-24T15:05:08;27.40;;;15.97;;
6344;SDS011;3205;42.666;23.264;2022-12-24T15:07:38;31.37;;;16.07;;
6344;SDS011;3205;42.666;23.264;2022-12-24T15:10:24;24.63;;;13.63;;